sensor_id;sensor_type;location;lat;lon;timestamp;P1;durP1;ratioP1;P2;durP2;ratioP2
61330;SDS011;57640;52.472;-1.950;2023-04-15T00:00:23;1.20;;;0.90;;
61330;SDS011;57640;52.472;-1.950;2023-04-15T00:03:30;0.90;;;0.80;;
61330;SDS011;57640;52.472;-1.950;2023-04-15T00:06:38;0.90;;;0.80;;
61330;SDS011;57640;52.472;-1.950;2023-04-15T00:09:43;1.23;;;0.90;;
61330;SDS011;57640;52.472;-1.950;2023-04-15T00:12:49;1.15;;;0.93;;
61330;SDS011;57640;52.472;-1.950;2023-04-15T00:15:54;1.00;;;0.90;;
61330;SDS011;57640;52.472;-1.950;2023-04-15T00:19:00;0.98;;;0.82;;
61330;SDS011;57640;52.472;-1.950;2023-04-15T00:22:08;0.70;;;0.60;;
61330;SDS011;57640;52.472;-1.950;2023-04-15T00:25:13;1.25;;;0.77;;
61330;SDS011;57640;52.472;-1.950;2023-04-15T00:28:19;1.27;;;0.90;;
61330;SDS011;57640;52.472;-1.950;2023-04-15T00:31:24;0.93;;;0.80;;
61330;SDS011;57640;52.472;-1.950;2023-04-15T00:34:30;1.35;;;0.70;;
61330;SDS011;57640;52.472;-1.950;2023-04-15T00:37:38;1.05;;;0.80;;
61330;SDS011;57640;52.472;-1.950;2023-04-15T00:40:44;1.15;;;0.93;;
61330;SDS011;57640;52.472;-1.950;2023-04-15T00:43:49;1.10;;;0.90;;
61330;SDS011;57640;52.472;-1.950;2023-04-15T00:46:55;0.93;;;0.80;;
61330;SDS011;57640;52.472;-1.950;2023-04-15T00:50:01;1.00;;;0.90;;
61330;SDS011;57640;52.472;-1.950;2023-04-15T00:53:09;1.10;;;0.88;;
61330;SDS011;57640;52.472;-1.950;2023-04-15T00:56:14;1.17;;;0.90;;
61330;SDS011;57640;52.472;-1.950;2023-04-15T00:59:19;1.17;;;0.80;;
61330;SDS011;57640;52.472;-1.950;2023-04-15T01:02:25;1.25;;;1.00;;
61330;SDS011;57640;52.472;-1.950;2023-04-15T01:05:31;1.10;;;0.93;;
61330;SDS011;57640;52.472;-1.950;2023-04-15T01:08:39;2.03;;;1.10;;
61330;SDS011;57640;52.472;-1.950;2023-04-15T01:11:44;1.42;;;0.90;;
61330;SDS011;57640;52.472;-1.950;2023-04-15T01:14:50;0.80;;;0.73;;
61330;SDS011;57640;52.472;-1.950;2023-04-15T01:17:55;1.10;;;0.80;;
61330;SDS011;57640;52.472;-1.950;2023-04-15T01:21:01;1.20;;;0.90;;
61330;SDS011;57640;52.472;-1.950;2023-04-15T01:24:09;0.93;;;0.80;;
61330;SDS011;57640;52.472;-1.950;2023-04-15T01:27:17;0.90;;;0.80;;
61330;SDS011;57640;52.472;-1.950;2023-04-15T01:30:23;1.05;;;0.85;;
61330;SDS011;57640;52.472;-1.950;2023-04-15T01:33:28;1.48;;;1.20;;
61330;SDS011;57640;52.472;-1.950;2023-04-15T01:36:33;0.90;;;0.80;;
61330;SDS011;57640;52.472;-1.950;2023-04-15T01:39:39;1.00;;;0.80;;
61330;SDS011;57640;52.472;-1.950;2023-04-15T01:42:47;0.90;;;0.80;;
61330;SDS011;57640;52.472;-1.950;2023-04-15T01:45:52;0.93;;;0.70;;
61330;SDS011;57640;52.472;-1.950;2023-04-15T01:48:58;1.27;;;0.88;;
61330;SDS011;57640;52.472;-1.950;2023-04-15T01:52:03;0.80;;;0.80;;
61330;SDS011;57640;52.472;-1.950;2023-04-15T01:55:09;1.10;;;0.90;;
61330;SDS011;57640;52.472;-1.950;2023-04-15T01:58:17;1.02;;;0.80;;
61330;SDS011;57640;52.472;-1.950;2023-04-15T02:01:23;1.02;;;0.85;;
61330;SDS011;57640;52.472;-1.950;2023-04-15T02:04:29;1.00;;;0.90;;
61330;SDS011;57640;52.472;-1.950;2023-04-15T02:07:35;1.08;;;0.98;;
61330;SDS011;57640;52.472;-1.950;2023-04-15T02:10:41;1.23;;;0.93;;
61330;SDS011;57640;52.472;-1.950;2023-04-15T02:13:49;0.95;;;0.85;;
61330;SDS011;57640;52.472;-1.950;2023-04-15T02:16:55;1.02;;;0.93;;
61330;SDS011;57640;52.472;-1.950;2023-04-15T02:20:08;1.40;;;1.00;;
61330;SDS011;57640;52.472;-1.950;2023-04-15T02:23:13;1.17;;;0.90;;
61330;SDS011;57640;52.472;-1.950;2023-04-15T02:26:19;1.08;;;0.80;;
61330;SDS011;57640;52.472;-1.950;2023-04-15T02:29:27;1.30;;;0.90;;
61330;SDS011;57640;52.472;-1.950;2023-04-15T02:32:32;1.03;;;0.80;;
61330;SDS011;57640;52.472;-1.950;2023-04-15T02:35:39;1.00;;;0.90;;
61330;SDS011;57640;52.472;-1.950;2023-04-15T02:38:46;1.27;;;0.90;;
61330;SDS011;57640;52.472;-1.950;2023-04-15T02:41:51;1.33;;;0.90;;
61330;SDS011;57640;52.472;-1.950;2023-04-15T02:45:00;1.30;;;0.93;;
61330;SDS011;57640;52.472;-1.950;2023-04-15T02:48:06;1.42;;;1.00;;
61330;SDS011;57640;52.472;-1.950;2023-04-15T02:51:12;1.00;;;0.90;;
61330;SDS011;57640;52.472;-1.950;2023-04-15T02:54:18;1.20;;;0.90;;
61330;SDS011;57640;52.472;-1.950;2023-04-15T02:57:24;1.23;;;1.00;;
61330;SDS011;57640;52.472;-1.950;2023-04-15T03:00:32;0.80;;;0.80;;
61330;SDS011;57640;52.472;-1.950;2023-04-15T03:03:37;1.02;;;0.90;;
61330;SDS011;57640;52.472;-1.950;2023-04-15T03:06:42;1.10;;;1.00;;
61330;SDS011;57640;52.472;-1.950;2023-04-15T03:09:48;1.70;;;1.00;;
61330;SDS011;57640;52.472;-1.950;2023-04-15T03:12:53;1.20;;;0.90;;
61330;SDS011;57640;52.472;-1.950;2023-04-15T03:16:01;1.10;;;0.80;;
61330;SDS011;57640;52.472;-1.950;2023-04-15T03:19:07;1.00;;;0.88;;
61330;SDS011;57640;52.472;-1.950;2023-04-15T03:22:12;0.90;;;0.70;;
61330;SDS011;57640;52.472;-1.950;2023-04-15T03:25:18;1.02;;;0.80;;
61330;SDS011;57640;52.472;-1.950;2023-04-15T03:28:23;1.02;;;0.93;;
61330;SDS011;57640;52.472;-1.950;2023-04-15T03:31:31;0.90;;;0.75;;
61330;SDS011;57640;52.472;-1.950;2023-04-15T03:34:36;1.15;;;1.00;;
61330;SDS011;57640;52.472;-1.950;2023-04-15T03:37:42;1.23;;;0.95;;
61330;SDS011;57640;52.472;-1.950;2023-04-15T03:40:47;1.83;;;1.10;;
61330;SDS011;57640;52.472;-1.950;2023-04-15T03:43:52;0.80;;;0.70;;
61330;SDS011;57640;52.472;-1.950;2023-04-15T03:47:00;1.02;;;0.88;;
61330;SDS011;57640;52.472;-1.950;2023-04-15T03:50:06;1.00;;;0.80;;
61330;SDS011;57640;52.472;-1.950;2023-04-15T03:53:12;1.00;;;0.90;;
61330;SDS011;57640;52.472;-1.950;2023-04-15T03:56:17;1.33;;;1.10;;
61330;SDS011;57640;52.472;-1.950;2023-04-15T03:59:23;1.38;;;1.00;;
61330;SDS011;57640;52.472;-1.950;2023-04-15T04:02:30;1.98;;;1.00;;
61330;SDS011;57640;52.472;-1.950;2023-04-15T04:05:36;1.38;;;1.10;;
61330;SDS011;57640;52.472;-1.950;2023-04-15T04:08:42;1.27;;;0.90;;
61330;SDS011;57640;52.472;-1.950;2023-04-15T04:11:48;1.10;;;0.88;;
61330;SDS011;57640;52.472;-1.950;2023-04-15T04:14:53;1.25;;;1.00;;
61330;SDS011;57640;52.472;-1.950;2023-04-15T04:18:01;0.82;;;0.80;;
61330;SDS011;57640;52.472;-1.950;2023-04-15T04:21:06;0.80;;;0.80;;
61330;SDS011;57640;52.472;-1.950;2023-04-15T04:24:12;1.02;;;0.80;;
61330;SDS011;57640;52.472;-1.950;2023-04-15T04:27:17;0.95;;;0.85;;
61330;SDS011;57640;52.472;-1.950;2023-04-15T04:30:23;1.33;;;0.93;;
61330;SDS011;57640;52.472;-1.950;2023-04-15T04:33:31;1.02;;;0.80;;
61330;SDS011;57640;52.472;-1.950;2023-04-15T04:36:36;0.90;;;0.80;;
61330;SDS011;57640;52.472;-1.950;2023-04-15T04:39:41;0.80;;;0.80;;
61330;SDS011;57640;52.472;-1.950;2023-04-15T04:42:47;1.00;;;0.90;;
61330;SDS011;57640;52.472;-1.950;2023-04-15T04:45:52;0.80;;;0.70;;
61330;SDS011;57640;52.472;-1.950;2023-04-15T04:49:00;0.90;;;0.80;;
61330;SDS011;57640;52.472;-1.950;2023-04-15T04:52:06;1.00;;;0.90;;
61330;SDS011;57640;52.472;-1.950;2023-04-15T04:55:11;0.80;;;0.80;;
61330;SDS011;57640;52.472;-1.950;2023-04-15T04:58:17;0.90;;;0.80;;
61330;SDS011;57640;52.472;-1.950;2023-04-15T05:01:22;1.55;;;1.00;;
61330;SDS011;57640;52.472;-1.950;2023-04-15T05:04:31;0.80;;;0.77;;
61330;SDS011;57640;52.472;-1.950;2023-04-15T05:07:37;1.10;;;0.77;;
61330;SDS011;57640;52.472;-1.950;2023-04-15T05:10:42;1.25;;;1.00;;
61330;SDS011;57640;52.472;-1.950;2023-04-15T05:13:47;1.08;;;0.90;;
61330;SDS011;57640;52.472;-1.950;2023-04-15T05:16:53;1.00;;;0.90;;
61330;SDS011;57640;52.472;-1.950;2023-04-15T05:20:01;0.82;;;0.80;;
61330;SDS011;57640;52.472;-1.950;2023-04-15T05:23:06;0.75;;;0.75;;
61330;SDS011;57640;52.472;-1.950;2023-04-15T05:26:11;1.42;;;1.02;;
61330;SDS011;57640;52.472;-1.950;2023-04-15T05:29:17;0.73;;;0.70;;
61330;SDS011;57640;52.472;-1.950;2023-04-15T05:32:22;1.27;;;0.90;;
61330;SDS011;57640;52.472;-1.950;2023-04-15T05:35:30;1.15;;;0.95;;
61330;SDS011;57640;52.472;-1.950;2023-04-15T05:38:36;1.13;;;0.93;;
61330;SDS011;57640;52.472;-1.950;2023-04-15T05:41:41;1.10;;;0.80;;
61330;SDS011;57640;52.472;-1.950;2023-04-15T05:44:47;0.90;;;0.80;;
61330;SDS011;57640;52.472;-1.950;2023-04-15T05:47:52;0.88;;;0.80;;
61330;SDS011;57640;52.472;-1.950;2023-04-15T05:51:00;1.00;;;0.80;;
61330;SDS011;57640;52.472;-1.950;2023-04-15T05:54:05;0.93;;;0.80;;
61330;SDS011;57640;52.472;-1.950;2023-04-15T05:57:11;1.30;;;1.00;;
61330;SDS011;57640;52.472;-1.950;2023-04-15T06:00:16;0.85;;;0.77;;
61330;SDS011;57640;52.472;-1.950;2023-04-15T06:03:22;1.50;;;1.02;;
61330;SDS011;57640;52.472;-1.950;2023-04-15T06:06:30;1.02;;;0.77;;
61330;SDS011;57640;52.472;-1.950;2023-04-15T06:09:36;1.20;;;1.08;;
61330;SDS011;57640;52.472;-1.950;2023-04-15T06:12:41;1.00;;;0.80;;
61330;SDS011;57640;52.472;-1.950;2023-04-15T06:15:49;0.77;;;0.77;;
61330;SDS011;57640;52.472;-1.950;2023-04-15T06:18:55;1.00;;;0.90;;
61330;SDS011;57640;52.472;-1.950;2023-04-15T06:22:03;1.10;;;1.00;;
61330;SDS011;57640;52.472;-1.950;2023-04-15T06:25:08;1.10;;;0.90;;
61330;SDS011;57640;52.472;-1.950;2023-04-15T06:28:14;0.98;;;0.80;;
61330;SDS011;57640;52.472;-1.950;2023-04-15T06:31:19;1.33;;;1.02;;
61330;SDS011;57640;52.472;-1.950;2023-04-15T06:34:24;1.33;;;1.00;;
61330;SDS011;57640;52.472;-1.950;2023-04-15T06:37:32;0.80;;;0.80;;
61330;SDS011;57640;52.472;-1.950;2023-04-15T06:40:38;0.70;;;0.68;;
61330;SDS011;57640;52.472;-1.950;2023-04-15T06:43:43;1.10;;;1.00;;
61330;SDS011;57640;52.472;-1.950;2023-04-15T06:46:48;1.10;;;1.00;;
61330;SDS011;57640;52.472;-1.950;2023-04-15T06:49:54;0.90;;;0.80;;
61330;SDS011;57640;52.472;-1.950;2023-04-15T06:53:02;0.80;;;0.80;;
61330;SDS011;57640;52.472;-1.950;2023-04-15T06:56:08;1.25;;;0.90;;
61330;SDS011;57640;52.472;-1.950;2023-04-15T06:59:13;1.00;;;0.90;;
61330;SDS011;57640;52.472;-1.950;2023-04-15T07:02:19;0.90;;;0.80;;
61330;SDS011;57640;52.472;-1.950;2023-04-15T07:05:24;1.10;;;0.80;;
61330;SDS011;57640;52.472;-1.950;2023-04-15T07:08:32;0.77;;;0.77;;
61330;SDS011;57640;52.472;-1.950;2023-04-15T07:11:38;0.90;;;0.80;;
61330;SDS011;57640;52.472;-1.950;2023-04-15T07:14:43;0.70;;;0.70;;
61330;SDS011;57640;52.472;-1.950;2023-04-15T07:17:48;1.00;;;0.80;;
61330;SDS011;57640;52.472;-1.950;2023-04-15T07:20:54;1.10;;;0.80;;
61330;SDS011;57640;52.472;-1.950;2023-04-15T07:24:02;1.00;;;0.90;;
61330;SDS011;57640;52.472;-1.950;2023-04-15T07:27:08;1.30;;;0.90;;
61330;SDS011;57640;52.472;-1.950;2023-04-15T07:30:13;1.02;;;0.80;;
61330;SDS011;57640;52.472;-1.950;2023-04-15T07:33:18;0.90;;;0.70;;
61330;SDS011;57640;52.472;-1.950;2023-04-15T07:36:24;1.05;;;0.85;;
61330;SDS011;57640;52.472;-1.950;2023-04-15T07:39:33;0.80;;;0.77;;
61330;SDS011;57640;52.472;-1.950;2023-04-15T07:42:38;1.48;;;0.80;;
61330;SDS011;57640;52.472;-1.950;2023-04-15T07:45:44;0.95;;;0.80;;
61330;SDS011;57640;52.472;-1.950;2023-04-15T07:48:50;0.82;;;0.70;;
61330;SDS011;57640;52.472;-1.950;2023-04-15T07:51:55;0.80;;;0.80;;
61330;SDS011;57640;52.472;-1.950;2023-04-15T07:55:04;1.08;;;0.95;;
61330;SDS011;57640;52.472;-1.950;2023-04-15T07:58:09;0.80;;;0.80;;
61330;SDS011;57640;52.472;-1.950;2023-04-15T08:01:14;0.80;;;0.80;;
61330;SDS011;57640;52.472;-1.950;2023-04-15T08:04:20;0.70;;;0.70;;
61330;SDS011;57640;52.472;-1.950;2023-04-15T08:07:25;1.10;;;1.00;;
61330;SDS011;57640;52.472;-1.950;2023-04-15T08:10:33;1.10;;;1.00;;
61330;SDS011;57640;52.472;-1.950;2023-04-15T08:13:38;1.00;;;0.80;;
61330;SDS011;57640;52.472;-1.950;2023-04-15T08:16:44;1.20;;;1.00;;
61330;SDS011;57640;52.472;-1.950;2023-04-15T08:19:49;0.80;;;0.80;;
61330;SDS011;57640;52.472;-1.950;2023-04-15T08:22:55;0.88;;;0.80;;
61330;SDS011;57640;52.472;-1.950;2023-04-15T08:26:03;0.70;;;0.70;;
61330;SDS011;57640;52.472;-1.950;2023-04-15T08:29:08;1.00;;;0.90;;
61330;SDS011;57640;52.472;-1.950;2023-04-15T08:32:14;1.00;;;0.90;;
61330;SDS011;57640;52.472;-1.950;2023-04-15T08:35:20;0.90;;;0.80;;
61330;SDS011;57640;52.472;-1.950;2023-04-15T08:38:25;0.80;;;0.80;;
61330;SDS011;57640;52.472;-1.950;2023-04-15T08:41:33;0.85;;;0.77;;
61330;SDS011;57640;52.472;-1.950;2023-04-15T08:44:41;0.88;;;0.80;;
61330;SDS011;57640;52.472;-1.950;2023-04-15T08:47:48;0.70;;;0.70;;
61330;SDS011;57640;52.472;-1.950;2023-04-15T08:50:57;1.00;;;0.90;;
61330;SDS011;57640;52.472;-1.950;2023-04-15T08:54:03;0.80;;;0.80;;
61330;SDS011;57640;52.472;-1.950;2023-04-15T08:57:12;1.30;;;1.00;;
61330;SDS011;57640;52.472;-1.950;2023-04-15T09:00:18;0.75;;;0.70;;
61330;SDS011;57640;52.472;-1.950;2023-04-15T09:03:23;0.70;;;0.70;;
61330;SDS011;57640;52.472;-1.950;2023-04-15T09:06:29;0.80;;;0.80;;
61330;SDS011;57640;52.472;-1.950;2023-04-15T09:09:36;1.00;;;0.85;;
61330;SDS011;57640;52.472;-1.950;2023-04-15T09:15:51;0.93;;;0.82;;
61330;SDS011;57640;52.472;-1.950;2023-04-15T09:18:57;1.00;;;0.90;;
61330;SDS011;57640;52.472;-1.950;2023-04-15T09:22:03;1.00;;;0.90;;
61330;SDS011;57640;52.472;-1.950;2023-04-15T09:28:31;0.82;;;0.80;;
61330;SDS011;57640;52.472;-1.950;2023-04-15T09:31:40;0.73;;;0.73;;
61330;SDS011;57640;52.472;-1.950;2023-04-15T09:34:45;1.02;;;0.93;;
61330;SDS011;57640;52.472;-1.950;2023-04-15T09:37:51;1.30;;;0.98;;
61330;SDS011;57640;52.472;-1.950;2023-04-15T09:40:56;0.80;;;0.80;;
61330;SDS011;57640;52.472;-1.950;2023-04-15T09:44:02;0.80;;;0.80;;
61330;SDS011;57640;52.472;-1.950;2023-04-15T09:47:10;1.13;;;0.80;;
61330;SDS011;57640;52.472;-1.950;2023-04-15T09:50:30;1.00;;;0.82;;
61330;SDS011;57640;52.472;-1.950;2023-04-15T09:53:45;1.00;;;0.90;;
61330;SDS011;57640;52.472;-1.950;2023-04-15T09:56:50;0.70;;;0.70;;
61330;SDS011;57640;52.472;-1.950;2023-04-15T09:59:55;0.70;;;0.70;;
61330;SDS011;57640;52.472;-1.950;2023-04-15T10:03:04;0.88;;;0.80;;
61330;SDS011;57640;52.472;-1.950;2023-04-15T10:09:14;0.63;;;0.60;;
61330;SDS011;57640;52.472;-1.950;2023-04-15T10:12:20;0.63;;;0.63;;
61330;SDS011;57640;52.472;-1.950;2023-04-15T10:15:26;0.80;;;0.80;;
61330;SDS011;57640;52.472;-1.950;2023-04-15T10:18:37;0.80;;;0.80;;
61330;SDS011;57640;52.472;-1.950;2023-04-15T10:21:42;0.88;;;0.75;;
61330;SDS011;57640;52.472;-1.950;2023-04-15T10:24:48;0.70;;;0.70;;
61330;SDS011;57640;52.472;-1.950;2023-04-15T10:27:54;0.70;;;0.70;;
61330;SDS011;57640;52.472;-1.950;2023-04-15T10:30:59;0.80;;;0.80;;
61330;SDS011;57640;52.472;-1.950;2023-04-15T10:34:08;1.05;;;0.75;;
61330;SDS011;57640;52.472;-1.950;2023-04-15T10:37:18;0.80;;;0.70;;
61330;SDS011;57640;52.472;-1.950;2023-04-15T10:40:26;0.90;;;0.73;;
61330;SDS011;57640;52.472;-1.950;2023-04-15T10:43:32;0.68;;;0.68;;
61330;SDS011;57640;52.472;-1.950;2023-04-15T10:46:38;0.77;;;0.60;;
61330;SDS011;57640;52.472;-1.950;2023-04-15T10:49:50;0.82;;;0.80;;
61330;SDS011;57640;52.472;-1.950;2023-04-15T10:52:56;0.68;;;0.68;;
61330;SDS011;57640;52.472;-1.950;2023-04-15T10:56:01;0.73;;;0.65;;
61330;SDS011;57640;52.472;-1.950;2023-04-15T10:59:08;0.98;;;0.80;;
61330;SDS011;57640;52.472;-1.950;2023-04-15T11:02:13;0.75;;;0.75;;
61330;SDS011;57640;52.472;-1.950;2023-04-15T11:05:22;0.80;;;0.80;;
61330;SDS011;57640;52.472;-1.950;2023-04-15T11:15:27;1.02;;;0.75;;
61330;SDS011;57640;52.472;-1.950;2023-04-15T11:18:33;0.70;;;0.70;;
61330;SDS011;57640;52.472;-1.950;2023-04-15T11:21:41;1.38;;;0.70;;
61330;SDS011;57640;52.472;-1.950;2023-04-15T11:24:47;0.70;;;0.70;;
61330;SDS011;57640;52.472;-1.950;2023-04-15T11:27:53;0.65;;;0.65;;
61330;SDS011;57640;52.472;-1.950;2023-04-15T11:31:04;1.02;;;0.70;;
61330;SDS011;57640;52.472;-1.950;2023-04-15T11:34:11;0.80;;;0.68;;
61330;SDS011;57640;52.472;-1.950;2023-04-15T11:37:19;0.93;;;0.60;;
61330;SDS011;57640;52.472;-1.950;2023-04-15T11:40:32;0.70;;;0.70;;
61330;SDS011;57640;52.472;-1.950;2023-04-15T11:43:38;0.98;;;0.88;;
61330;SDS011;57640;52.472;-1.950;2023-04-15T11:46:44;0.85;;;0.75;;
61330;SDS011;57640;52.472;-1.950;2023-04-15T11:49:49;0.85;;;0.70;;
61330;SDS011;57640;52.472;-1.950;2023-04-15T11:52:57;0.60;;;0.60;;
61330;SDS011;57640;52.472;-1.950;2023-04-15T11:56:04;0.88;;;0.80;;
61330;SDS011;57640;52.472;-1.950;2023-04-15T11:59:09;0.80;;;0.80;;
61330;SDS011;57640;52.472;-1.950;2023-04-15T12:02:15;0.60;;;0.60;;
61330;SDS011;57640;52.472;-1.950;2023-04-15T12:05:20;0.80;;;0.70;;
61330;SDS011;57640;52.472;-1.950;2023-04-15T12:08:33;0.65;;;0.60;;
61330;SDS011;57640;52.472;-1.950;2023-04-15T12:11:51;0.60;;;0.60;;
61330;SDS011;57640;52.472;-1.950;2023-04-15T12:15:01;0.80;;;0.70;;
61330;SDS011;57640;52.472;-1.950;2023-04-15T12:18:08;0.80;;;0.73;;
61330;SDS011;57640;52.472;-1.950;2023-04-15T12:21:21;0.63;;;0.60;;
61330;SDS011;57640;52.472;-1.950;2023-04-15T12:24:29;1.25;;;0.70;;
61330;SDS011;57640;52.472;-1.950;2023-04-15T12:27:35;0.55;;;0.55;;
61330;SDS011;57640;52.472;-1.950;2023-04-15T12:30:47;1.50;;;0.70;;
61330;SDS011;57640;52.472;-1.950;2023-04-15T12:33:53;0.60;;;0.60;;
61330;SDS011;57640;52.472;-1.950;2023-04-15T12:37:00;0.70;;;0.70;;
61330;SDS011;57640;52.472;-1.950;2023-04-15T12:40:08;0.60;;;0.60;;
61330;SDS011;57640;52.472;-1.950;2023-04-15T12:43:14;0.95;;;0.70;;
61330;SDS011;57640;52.472;-1.950;2023-04-15T12:46:19;1.63;;;0.70;;
61330;SDS011;57640;52.472;-1.950;2023-04-15T12:49:25;0.82;;;0.80;;
61330;SDS011;57640;52.472;-1.950;2023-04-15T12:52:30;0.75;;;0.70;;
61330;SDS011;57640;52.472;-1.950;2023-04-15T12:55:38;1.13;;;0.70;;
61330;SDS011;57640;52.472;-1.950;2023-04-15T12:58:43;1.42;;;0.70;;
61330;SDS011;57640;52.472;-1.950;2023-04-15T13:01:49;0.75;;;0.70;;
61330;SDS011;57640;52.472;-1.950;2023-04-15T13:04:54;0.98;;;0.80;;
61330;SDS011;57640;52.472;-1.950;2023-04-15T13:08:00;0.60;;;0.60;;
61330;SDS011;57640;52.472;-1.950;2023-04-15T13:11:08;0.60;;;0.60;;
61330;SDS011;57640;52.472;-1.950;2023-04-15T13:14:13;0.82;;;0.75;;
61330;SDS011;57640;52.472;-1.950;2023-04-15T13:17:18;0.80;;;0.70;;
61330;SDS011;57640;52.472;-1.950;2023-04-15T13:20:24;0.98;;;0.80;;
61330;SDS011;57640;52.472;-1.950;2023-04-15T13:23:29;0.80;;;0.70;;
61330;SDS011;57640;52.472;-1.950;2023-04-15T13:26:37;0.90;;;0.70;;
61330;SDS011;57640;52.472;-1.950;2023-04-15T13:29:43;0.93;;;0.60;;
61330;SDS011;57640;52.472;-1.950;2023-04-15T13:32:48;0.80;;;0.80;;
61330;SDS011;57640;52.472;-1.950;2023-04-15T13:35:55;0.80;;;0.73;;
61330;SDS011;57640;52.472;-1.950;2023-04-15T13:39:00;0.70;;;0.70;;
61330;SDS011;57640;52.472;-1.950;2023-04-15T13:42:09;0.85;;;0.60;;
61330;SDS011;57640;52.472;-1.950;2023-04-15T13:45:14;0.60;;;0.60;;
61330;SDS011;57640;52.472;-1.950;2023-04-15T13:48:20;0.70;;;0.70;;
61330;SDS011;57640;52.472;-1.950;2023-04-15T13:51:25;0.73;;;0.60;;
61330;SDS011;57640;52.472;-1.950;2023-04-15T13:54:31;0.68;;;0.68;;
61330;SDS011;57640;52.472;-1.950;2023-04-15T13:57:39;0.90;;;0.65;;
61330;SDS011;57640;52.472;-1.950;2023-04-15T14:00:44;0.60;;;0.60;;
61330;SDS011;57640;52.472;-1.950;2023-04-15T14:03:49;0.70;;;0.60;;
61330;SDS011;57640;52.472;-1.950;2023-04-15T14:06:55;0.70;;;0.60;;
61330;SDS011;57640;52.472;-1.950;2023-04-15T14:10:00;0.75;;;0.75;;
61330;SDS011;57640;52.472;-1.950;2023-04-15T14:13:08;0.63;;;0.60;;
61330;SDS011;57640;52.472;-1.950;2023-04-15T14:16:14;0.63;;;0.52;;
61330;SDS011;57640;52.472;-1.950;2023-04-15T14:19:19;0.80;;;0.60;;
61330;SDS011;57640;52.472;-1.950;2023-04-15T14:22:24;0.60;;;0.60;;
61330;SDS011;57640;52.472;-1.950;2023-04-15T14:25:30;0.60;;;0.60;;
61330;SDS011;57640;52.472;-1.950;2023-04-15T14:28:38;0.60;;;0.57;;
61330;SDS011;57640;52.472;-1.950;2023-04-15T14:31:46;1.27;;;0.70;;
61330;SDS011;57640;52.472;-1.950;2023-04-15T14:34:51;0.70;;;0.60;;
61330;SDS011;57640;52.472;-1.950;2023-04-15T14:37:56;0.90;;;0.70;;
61330;SDS011;57640;52.472;-1.950;2023-04-15T14:41:02;0.60;;;0.60;;
61330;SDS011;57640;52.472;-1.950;2023-04-15T14:44:10;0.63;;;0.63;;
61330;SDS011;57640;52.472;-1.950;2023-04-15T14:47:15;0.60;;;0.60;;
61330;SDS011;57640;52.472;-1.950;2023-04-15T14:50:20;0.80;;;0.80;;
61330;SDS011;57640;52.472;-1.950;2023-04-15T14:53:26;0.68;;;0.60;;
61330;SDS011;57640;52.472;-1.950;2023-04-15T14:56:31;0.57;;;0.50;;
61330;SDS011;57640;52.472;-1.950;2023-04-15T14:59:39;0.60;;;0.60;;
61330;SDS011;57640;52.472;-1.950;2023-04-15T15:02:45;0.63;;;0.63;;
61330;SDS011;57640;52.472;-1.950;2023-04-15T15:05:51;0.80;;;0.70;;
61330;SDS011;57640;52.472;-1.950;2023-04-15T15:08:56;0.50;;;0.50;;
61330;SDS011;57640;52.472;-1.950;2023-04-15T15:12:02;1.08;;;0.70;;
61330;SDS011;57640;52.472;-1.950;2023-04-15T15:15:10;0.60;;;0.60;;
61330;SDS011;57640;52.472;-1.950;2023-04-15T15:18:16;0.73;;;0.60;;
61330;SDS011;57640;52.472;-1.950;2023-04-15T15:21:22;0.63;;;0.60;;
61330;SDS011;57640;52.472;-1.950;2023-04-15T15:24:28;0.65;;;0.60;;
61330;SDS011;57640;52.472;-1.950;2023-04-15T15:27:33;0.63;;;0.63;;
61330;SDS011;57640;52.472;-1.950;2023-04-15T15:30:41;0.60;;;0.60;;
61330;SDS011;57640;52.472;-1.950;2023-04-15T15:33:47;0.90;;;0.60;;
61330;SDS011;57640;52.472;-1.950;2023-04-15T15:36:54;0.98;;;0.70;;
61330;SDS011;57640;52.472;-1.950;2023-04-15T15:39:59;0.70;;;0.70;;
61330;SDS011;57640;52.472;-1.950;2023-04-15T15:43:04;0.88;;;0.77;;
61330;SDS011;57640;52.472;-1.950;2023-04-15T15:46:12;1.10;;;0.70;;
61330;SDS011;57640;52.472;-1.950;2023-04-15T15:49:18;0.65;;;0.60;;
61330;SDS011;57640;52.472;-1.950;2023-04-15T15:52:24;0.60;;;0.50;;
61330;SDS011;57640;52.472;-1.950;2023-04-15T15:55:29;0.90;;;0.80;;
61330;SDS011;57640;52.472;-1.950;2023-04-15T15:58:34;0.70;;;0.70;;
61330;SDS011;57640;52.472;-1.950;2023-04-15T16:01:42;0.70;;;0.70;;
61330;SDS011;57640;52.472;-1.950;2023-04-15T16:04:48;2.28;;;1.88;;
61330;SDS011;57640;52.472;-1.950;2023-04-15T16:07:54;3.63;;;2.10;;
61330;SDS011;57640;52.472;-1.950;2023-04-15T16:10:59;3.30;;;1.58;;
61330;SDS011;57640;52.472;-1.950;2023-04-15T16:14:04;3.13;;;2.58;;
61330;SDS011;57640;52.472;-1.950;2023-04-15T16:17:14;2.05;;;1.85;;
61330;SDS011;57640;52.472;-1.950;2023-04-15T16:20:19;3.08;;;2.78;;
61330;SDS011;57640;52.472;-1.950;2023-04-15T16:23:25;3.40;;;2.90;;
61330;SDS011;57640;52.472;-1.950;2023-04-15T16:26:30;3.58;;;3.28;;
61330;SDS011;57640;52.472;-1.950;2023-04-15T16:29:36;2.88;;;2.22;;
61330;SDS011;57640;52.472;-1.950;2023-04-15T16:32:43;2.85;;;2.50;;
61330;SDS011;57640;52.472;-1.950;2023-04-15T16:35:49;4.15;;;2.92;;
61330;SDS011;57640;52.472;-1.950;2023-04-15T16:38:55;3.25;;;2.28;;
61330;SDS011;57640;52.472;-1.950;2023-04-15T16:42:00;3.35;;;3.05;;
61330;SDS011;57640;52.472;-1.950;2023-04-15T16:45:06;3.92;;;2.95;;
61330;SDS011;57640;52.472;-1.950;2023-04-15T16:48:14;4.32;;;3.20;;
61330;SDS011;57640;52.472;-1.950;2023-04-15T16:51:19;3.55;;;2.83;;
61330;SDS011;57640;52.472;-1.950;2023-04-15T16:54:25;3.53;;;2.50;;
61330;SDS011;57640;52.472;-1.950;2023-04-15T16:57:31;5.88;;;3.53;;
61330;SDS011;57640;52.472;-1.950;2023-04-15T17:00:36;4.03;;;3.10;;
61330;SDS011;57640;52.472;-1.950;2023-04-15T17:03:44;3.20;;;2.90;;
61330;SDS011;57640;52.472;-1.950;2023-04-15T17:06:49;3.63;;;3.00;;
61330;SDS011;57640;52.472;-1.950;2023-04-15T17:09:55;4.18;;;3.03;;
61330;SDS011;57640;52.472;-1.950;2023-04-15T17:13:00;4.05;;;3.10;;
61330;SDS011;57640;52.472;-1.950;2023-04-15T17:16:06;4.22;;;3.20;;
61330;SDS011;57640;52.472;-1.950;2023-04-15T17:19:14;3.63;;;3.10;;
61330;SDS011;57640;52.472;-1.950;2023-04-15T17:22:19;3.63;;;2.70;;
61330;SDS011;57640;52.472;-1.950;2023-04-15T17:25:24;4.78;;;2.80;;
61330;SDS011;57640;52.472;-1.950;2023-04-15T17:28:31;3.15;;;2.72;;
61330;SDS011;57640;52.472;-1.950;2023-04-15T17:31:37;3.60;;;2.80;;
61330;SDS011;57640;52.472;-1.950;2023-04-15T17:34:45;2.83;;;2.50;;
61330;SDS011;57640;52.472;-1.950;2023-04-15T17:37:50;2.60;;;2.23;;
61330;SDS011;57640;52.472;-1.950;2023-04-15T17:40:56;3.42;;;2.42;;
61330;SDS011;57640;52.472;-1.950;2023-04-15T17:44:04;2.97;;;2.22;;
61330;SDS011;57640;52.472;-1.950;2023-04-15T17:47:10;3.50;;;2.28;;
61330;SDS011;57640;52.472;-1.950;2023-04-15T17:50:18;3.17;;;2.33;;
61330;SDS011;57640;52.472;-1.950;2023-04-15T17:53:23;2.95;;;2.20;;
61330;SDS011;57640;52.472;-1.950;2023-04-15T17:56:28;2.92;;;2.55;;
61330;SDS011;57640;52.472;-1.950;2023-04-15T17:59:34;3.13;;;2.35;;
61330;SDS011;57640;52.472;-1.950;2023-04-15T18:02:39;2.72;;;2.10;;
61330;SDS011;57640;52.472;-1.950;2023-04-15T18:05:47;3.65;;;2.05;;
61330;SDS011;57640;52.472;-1.950;2023-04-15T18:08:53;2.80;;;2.17;;
61330;SDS011;57640;52.472;-1.950;2023-04-15T18:11:58;4.63;;;3.38;;
61330;SDS011;57640;52.472;-1.950;2023-04-15T18:15:04;9.43;;;4.57;;
61330;SDS011;57640;52.472;-1.950;2023-04-15T18:18:10;5.88;;;3.03;;
61330;SDS011;57640;52.472;-1.950;2023-04-15T18:21:18;3.22;;;2.17;;
61330;SDS011;57640;52.472;-1.950;2023-04-15T18:24:24;3.30;;;1.83;;
61330;SDS011;57640;52.472;-1.950;2023-04-15T18:27:29;3.50;;;2.00;;
61330;SDS011;57640;52.472;-1.950;2023-04-15T18:30:35;2.53;;;1.80;;
61330;SDS011;57640;52.472;-1.950;2023-04-15T18:33:40;2.00;;;1.42;;
61330;SDS011;57640;52.472;-1.950;2023-04-15T18:36:48;4.43;;;1.70;;
61330;SDS011;57640;52.472;-1.950;2023-04-15T18:39:54;2.90;;;1.50;;